createdAt,value
2023-01-09T00:00:53.792Z,98282.72
2023-01-09T00:01:56.551Z,98278.34
2023-01-09T00:02:58.323Z,98281.06
2023-01-09T00:04:01.053Z,98266.44
2023-01-09T00:05:04.676Z,98280.81
2023-01-09T00:06:07.733Z,98284.50
2023-01-09T00:07:10.444Z,98276.19
2023-01-09T00:08:12.135Z,98281.06
2023-01-09T00:09:14.782Z,98269.88
2023-01-09T00:10:16.636Z,98277.25
2023-01-09T00:11:19.310Z,98276.91
2023-01-09T00:12:21.009Z,98270.72
2023-01-09T00:13:23.765Z,98272.72
2023-01-09T00:14:26.436Z,98271.66
2023-01-09T00:15:28.211Z,98277.63
2023-01-09T00:16:31.035Z,98271.81
2023-01-09T00:17:32.828Z,98264.06
2023-01-09T00:18:35.803Z,98265.75
2023-01-09T00:19:37.525Z,98262.88
2023-01-09T00:20:41.652Z,98261.44
2023-01-09T00:21:43.367Z,98260.88
2023-01-09T00:22:46.051Z,98255.03
2023-01-09T00:23:48.054Z,98263.97
2023-01-09T00:24:50.770Z,98248.66
2023-01-09T00:26:01.755Z,98257.19
2023-01-09T00:27:04.730Z,98241.38
2023-01-09T00:28:06.509Z,98244.59
2023-01-09T00:29:11.452Z,98245.91
2023-01-09T00:30:13.467Z,98249.22
2023-01-09T00:31:16.688Z,98244.34
2023-01-09T00:32:20.260Z,98251.13
2023-01-09T00:33:25.709Z,98237.44
2023-01-09T00:34:27.617Z,98239.34
2023-01-09T00:35:30.452Z,98240.31
2023-01-09T00:36:33.600Z,98238.78
2023-01-09T00:37:36.289Z,98230.91
2023-01-09T00:38:38.197Z,98225.00
2023-01-09T00:39:41.042Z,98224.72
2023-01-09T00:40:42.719Z,98231.75
2023-01-09T00:41:47.308Z,98224.03
2023-01-09T00:42:55.067Z,98224.38
2023-01-09T00:44:00.512Z,98221.91
2023-01-09T00:45:05.119Z,98228.78
2023-01-09T00:46:08.065Z,98219.41
2023-01-09T00:47:13.566Z,98216.19
2023-01-09T00:48:24.773Z,98222.00
2023-01-09T00:49:29.314Z,98211.06
2023-01-09T00:50:34.427Z,98215.97
2023-01-09T00:51:38.173Z,98222.00
2023-01-09T00:52:41.634Z,98222.38
2023-01-09T00:53:43.573Z,98209.53
2023-01-09T00:54:47.163Z,98201.44
2023-01-09T00:55:49.223Z,98199.06
2023-01-09T00:56:52.051Z,98210.94
2023-01-09T00:57:53.747Z,98204.41
2023-01-09T00:58:56.934Z,98204.06
2023-01-09T00:59:59.548Z,98207.66
2023-01-09T01:01:02.507Z,98199.66
2023-01-09T01:02:04.464Z,98198.59
2023-01-09T01:03:07.249Z,98206.56
2023-01-09T01:04:23.880Z,98210.72
2023-01-09T01:05:40.472Z,98198.25
2023-01-09T01:07:02.244Z,98199.66
2023-01-09T01:08:11.746Z,98193.47
2023-01-09T01:09:13.442Z,98202.41
2023-01-09T01:10:20.117Z,98197.31
2023-01-09T01:11:22.117Z,98195.75
2023-01-09T01:12:24.841Z,98188.28
2023-01-09T01:13:27.568Z,98194.59
2023-01-09T01:14:29.252Z,98196.47
2023-01-09T01:15:31.937Z,98201.13
2023-01-09T01:16:33.653Z,98198.25
2023-01-09T01:17:37.093Z,98195.78
2023-01-09T01:18:39.037Z,98195.78
2023-01-09T01:19:41.785Z,98204.34
2023-01-09T01:20:44.756Z,98180.09
2023-01-09T01:21:48.775Z,98197.31
2023-01-09T01:22:50.471Z,98194.47
2023-01-09T01:23:53.155Z,98188.66
2023-01-09T01:24:54.919Z,98192.22
2023-01-09T01:25:57.713Z,98189.47
2023-01-09T01:26:59.399Z,98188.75
2023-01-09T01:28:02.096Z,98190.44
2023-01-09T01:29:03.750Z,98203.38
2023-01-09T01:30:07.677Z,98193.06
2023-01-09T01:31:09.648Z,98192.94
2023-01-09T01:32:12.732Z,98182.94
2023-01-09T01:33:14.394Z,98187.09
2023-01-09T01:34:17.156Z,98185.56
2023-01-09T01:35:18.898Z,98192.22
2023-01-09T01:36:21.626Z,98201.13
2023-01-09T01:37:24.744Z,98202.69
2023-01-09T01:38:27.437Z,98203.13
2023-01-09T01:39:29.134Z,98208.97
2023-01-09T01:40:31.794Z,98201.50
2023-01-09T01:41:33.513Z,98206.84
2023-01-09T01:42:36.228Z,98201.81
2023-01-09T01:43:51.048Z,98198.75
2023-01-09T01:45:09.410Z,98208.25
2023-01-09T01:46:11.182Z,98203.94
2023-01-09T01:47:14.225Z,98203.38
2023-01-09T01:48:18.669Z,98217.97
2023-01-09T01:49:21.357Z,98206.72
2023-01-09T01:50:28.035Z,98205.97
2023-01-09T01:51:32.734Z,98218.34
2023-01-09T01:52:36.217Z,98223.94
2023-01-09T01:53:41.275Z,98225.22
2023-01-09T01:54:43.637Z,98221.06
2023-01-09T01:55:50.678Z,98222.47
2023-01-09T01:56:57.352Z,98225.13
2023-01-09T01:58:02.860Z,98225.94
2023-01-09T01:59:08.957Z,98232.59
2023-01-09T02:00:13.450Z,98231.53
2023-01-09T02:01:15.511Z,98232.50
2023-01-09T02:02:19.371Z,98231.19
2023-01-09T02:03:26.104Z,98247.31
2023-01-09T02:04:29.206Z,98246.97
2023-01-09T02:05:32.014Z,98248.97
2023-01-09T02:06:34.480Z,98248.13
2023-01-09T02:07:38.599Z,98252.31
2023-01-09T02:08:40.396Z,98255.75
2023-01-09T02:09:45.065Z,98245.66
2023-01-09T02:10:48.895Z,98263.00
2023-01-09T02:11:53.023Z,98259.19
2023-01-09T02:12:55.645Z,98265.06
2023-01-09T02:13:57.467Z,98282.31
2023-01-09T02:15:03.720Z,98279.50
2023-01-09T02:16:17.087Z,98269.34
2023-01-09T02:17:31.074Z,98271.47
2023-01-09T02:18:42.724Z,98277.66
2023-01-09T02:20:16.540Z,98272.38
2023-01-09T02:21:25.201Z,98270.97
2023-01-09T02:22:34.051Z,98268.50
2023-01-09T02:24:02.535Z,98274.69
2023-01-09T02:25:20.756Z,98266.13
2023-01-09T02:26:54.819Z,98273.84
2023-01-09T02:28:13.990Z,98267.19
2023-01-09T02:29:54.552Z,98266.25
2023-01-09T02:31:02.655Z,98273.41
2023-01-09T02:32:07.625Z,98272.91
2023-01-09T02:33:21.930Z,98272.34
2023-01-09T02:34:26.802Z,98272.78
2023-01-09T02:35:51.754Z,98270.31
2023-01-09T02:37:00.560Z,98284.03
2023-01-09T02:38:10.167Z,98275.03
2023-01-09T02:39:21.841Z,98265.16
2023-01-09T02:40:28.574Z,98263.41
2023-01-09T02:41:33.451Z,98264.84
2023-01-09T02:42:37.105Z,98256.28
2023-01-09T02:43:40.548Z,98264.47
2023-01-09T02:44:43.123Z,98262.94
2023-01-09T02:45:45.795Z,98261.28
2023-01-09T02:47:00.172Z,98267.66
2023-01-09T02:48:02.847Z,98274.78
2023-01-09T02:49:04.624Z,98270.41
2023-01-09T02:50:10.156Z,98270.41
2023-01-09T02:51:15.965Z,98269.19
2023-01-09T02:52:28.023Z,98262.56
2023-01-09T02:53:50.583Z,98257.31
2023-01-09T02:55:01.283Z,98250.16
2023-01-09T02:56:15.973Z,98259.97
2023-01-09T02:57:39.777Z,98268.38
2023-01-09T02:58:54.759Z,98267.16
2023-01-09T03:00:08.052Z,98270.13
2023-01-09T03:01:22.613Z,98267.69
2023-01-09T03:02:38.199Z,98272.91
2023-01-09T03:03:46.990Z,98281.91
2023-01-09T03:04:57.624Z,98274.44
2023-01-09T03:06:07.710Z,98275.28
2023-01-09T03:07:15.289Z,98284.06
2023-01-09T03:08:20.306Z,98270.44
2023-01-09T03:09:24.372Z,98276.47
2023-01-09T03:10:33.213Z,98284.22
2023-01-09T03:11:44.298Z,98284.06
2023-01-09T03:12:48.735Z,98294.22
2023-01-09T03:13:52.079Z,98296.81
2023-01-09T03:14:57.509Z,98308.72
2023-01-09T03:16:01.181Z,98305.28
2023-01-09T03:17:08.938Z,98303.25
2023-01-09T03:18:14.198Z,98309.69
2023-01-09T03:19:19.416Z,98309.06
2023-01-09T03:20:23.545Z,98313.47
2023-01-09T03:21:27.450Z,98328.19
2023-01-09T03:22:29.134Z,98325.44
2023-01-09T03:23:46.961Z,98329.41
2023-01-09T03:24:48.669Z,98320.75
2023-01-09T03:25:51.357Z,98322.88
2023-01-09T03:26:54.295Z,98333.63
2023-01-09T03:27:59.606Z,98326.06
2023-01-09T03:29:01.351Z,98320.59
2023-01-09T03:30:04.306Z,98321.09
2023-01-09T03:31:06.622Z,98330.31
2023-01-09T03:32:09.303Z,98334.72
2023-01-09T03:33:12.405Z,98331.16
2023-01-09T03:34:15.120Z,98335.16
2023-01-09T03:35:16.861Z,98329.28
2023-01-09T03:36:21.516Z,98329.00
2023-01-09T03:37:23.168Z,98333.75
2023-01-09T03:38:25.899Z,98323.88
2023-01-09T03:39:27.595Z,98330.75
2023-01-09T03:40:31.501Z,98338.50
2023-01-09T03:41:33.189Z,98338.16
2023-01-09T03:42:35.817Z,98338.38
2023-01-09T03:43:37.561Z,98339.41
2023-01-09T03:44:40.254Z,98343.47
2023-01-09T03:45:42.769Z,98338.53
2023-01-09T03:46:45.482Z,98339.97
2023-01-09T03:47:47.218Z,98351.03
2023-01-09T03:48:51.298Z,98334.44
2023-01-09T03:49:53.073Z,98344.88
2023-01-09T03:50:57.015Z,98342.38
2023-01-09T03:51:58.682Z,98349.13
2023-01-09T03:53:01.994Z,98348.06
2023-01-09T03:54:03.843Z,98348.28
2023-01-09T03:55:07.154Z,98344.03
2023-01-09T03:56:08.804Z,98357.16
2023-01-09T03:57:11.503Z,98357.38
2023-01-09T03:58:13.772Z,98352.44
2023-01-09T03:59:16.459Z,98352.84
2023-01-09T04:00:19.020Z,98353.91
2023-01-09T04:01:21.825Z,98349.28
2023-01-09T04:02:23.648Z,98349.97
2023-01-09T04:03:26.543Z,98359.00
2023-01-09T04:04:29.653Z,98353.28
2023-01-09T04:05:32.293Z,98357.09
2023-01-09T04:06:34.089Z,98361.31
2023-01-09T04:07:36.761Z,98360.25
2023-01-09T04:08:38.496Z,98364.38
2023-01-09T04:09:42.093Z,98363.09
2023-01-09T04:10:44.673Z,98365.66
2023-01-09T04:11:47.409Z,98373.22
2023-01-09T04:12:49.095Z,98365.34
2023-01-09T04:13:51.775Z,98371.03
2023-01-09T04:14:53.418Z,98383.09
2023-01-09T04:15:56.286Z,98383.50
2023-01-09T04:16:57.955Z,98379.72
2023-01-09T04:18:00.668Z,98380.41
2023-01-09T04:19:03.347Z,98392.75
2023-01-09T04:20:07.626Z,98401.34
2023-01-09T04:21:10.386Z,98420.69
2023-01-09T04:22:12.124Z,98405.00
2023-01-09T04:23:14.801Z,98400.94
2023-01-09T04:24:16.760Z,98401.59
2023-01-09T04:25:19.466Z,98412.09
2023-01-09T04:26:21.174Z,98418.59
2023-01-09T04:27:23.873Z,98429.72
2023-01-09T04:28:25.555Z,98412.50
2023-01-09T04:29:28.231Z,98418.06
2023-01-09T04:30:36.069Z,98424.38
2023-01-09T04:31:38.900Z,98426.78
2023-01-09T04:32:40.724Z,98429.81
2023-01-09T04:33:43.495Z,98440.56
2023-01-09T04:34:45.186Z,98436.53
2023-01-09T04:35:49.203Z,98439.50
2023-01-09T04:36:52.146Z,98438.47
2023-01-09T04:37:53.906Z,98443.47
2023-01-09T04:38:56.551Z,98436.53
2023-01-09T04:39:58.364Z,98453.53
2023-01-09T04:41:01.024Z,98454.38
2023-01-09T04:42:02.787Z,98459.19
2023-01-09T04:43:05.455Z,98461.34
2023-01-09T04:44:07.140Z,98466.31
2023-01-09T04:45:12.067Z,98461.91
2023-01-09T04:46:13.878Z,98463.66
2023-01-09T04:47:16.607Z,98478.06
2023-01-09T04:48:18.878Z,98468.22
2023-01-09T04:49:22.951Z,98490.50
2023-01-09T04:50:25.672Z,98468.88
2023-01-09T04:51:28.764Z,98473.13
2023-01-09T04:52:31.387Z,98465.78
2023-01-09T04:53:33.096Z,98470.59
2023-01-09T04:54:35.765Z,98474.34
2023-01-09T04:55:38.480Z,98478.75
2023-01-09T04:56:40.223Z,98467.88
2023-01-09T04:57:42.920Z,98465.63
2023-01-09T04:58:44.638Z,98465.00
2023-01-09T04:59:47.346Z,98473.63
2023-01-09T05:00:49.244Z,98474.63
2023-01-09T05:01:54.715Z,98477.06
2023-01-09T05:02:57.103Z,98471.78
2023-01-09T05:03:59.814Z,98476.00
2023-01-09T05:05:01.464Z,98476.19
2023-01-09T05:06:04.195Z,98479.56
2023-01-09T05:07:07.305Z,98472.06
2023-01-09T05:08:09.953Z,98486.53
2023-01-09T05:09:11.722Z,98481.50
2023-01-09T05:10:14.400Z,98495.75
2023-01-09T05:11:16.279Z,98498.50
2023-01-09T05:12:18.961Z,98499.94
2023-01-09T05:13:20.684Z,98479.44
2023-01-09T05:14:23.419Z,98485.19
2023-01-09T05:15:28.233Z,98487.91
2023-01-09T05:16:32.080Z,98495.03
2023-01-09T05:17:33.818Z,98495.50
2023-01-09T05:18:36.567Z,98489.03
2023-01-09T05:19:39.027Z,98476.66
2023-01-09T05:20:41.763Z,98490.44
2023-01-09T05:21:43.485Z,98483.56
2023-01-09T05:22:47.532Z,98494.66
2023-01-09T05:23:49.291Z,98495.13
2023-01-09T05:24:51.987Z,98492.78
2023-01-09T05:25:53.738Z,98508.97
2023-01-09T05:26:56.463Z,98499.38
2023-01-09T05:27:59.880Z,98490.50
2023-01-09T05:29:01.588Z,98499.50
2023-01-09T05:30:04.882Z,98518.53
2023-01-09T05:31:06.551Z,98511.41
2023-01-09T05:32:09.222Z,98513.28
2023-01-09T05:33:10.905Z,98513.28
2023-01-09T05:34:13.546Z,98513.72
2023-01-09T05:35:15.352Z,98511.81
2023-01-09T05:36:18.179Z,98526.91
2023-01-09T05:37:19.975Z,98528.66
2023-01-09T05:38:24.034Z,98536.00
2023-01-09T05:39:25.869Z,98535.56
2023-01-09T05:40:32.245Z,98543.75
2023-01-09T05:41:40.255Z,98559.03
2023-01-09T05:42:44.169Z,98551.44
2023-01-09T05:43:45.869Z,98561.13
2023-01-09T05:44:48.606Z,98567.09
2023-01-09T05:45:50.316Z,98557.00
2023-01-09T05:46:52.973Z,98563.06
2023-01-09T05:47:54.710Z,98563.47
2023-01-09T05:48:57.582Z,98562.22
2023-01-09T05:50:00.310Z,98562.63
2023-01-09T05:51:02.012Z,98557.59
2023-01-09T05:52:05.005Z,98557.56
2023-01-09T05:53:06.883Z,98575.56
2023-01-09T05:54:11.036Z,98555.44
2023-01-09T05:55:13.125Z,98556.69
2023-01-09T05:56:15.924Z,98558.09
2023-01-09T05:57:17.645Z,98553.88
2023-01-09T05:58:20.319Z,98553.94
2023-01-09T05:59:22.110Z,98553.31
2023-01-09T06:00:24.991Z,98559.59
2023-01-09T06:01:26.836Z,98556.66
2023-01-09T06:02:29.588Z,98556.88
2023-01-09T06:03:31.369Z,98562.53
2023-01-09T06:04:34.077Z,98562.31
2023-01-09T06:05:35.781Z,98559.13
2023-01-09T06:06:39.782Z,98559.75
2023-01-09T06:07:41.649Z,98572.28
2023-01-09T06:08:44.302Z,98574.41
2023-01-09T06:09:47.404Z,98580.06
2023-01-09T06:10:50.137Z,98570.03
2023-01-09T06:11:52.125Z,98578.66
2023-01-09T06:12:55.189Z,98580.72
2023-01-09T06:13:57.873Z,98582.63
2023-01-09T06:14:59.646Z,98581.97
2023-01-09T06:16:02.448Z,98584.69
2023-01-09T06:17:04.244Z,98581.38
2023-01-09T06:18:06.961Z,98592.09
2023-01-09T06:19:09.517Z,98591.25
2023-01-09T06:20:12.752Z,98590.44
2023-01-09T06:21:14.962Z,98599.63
2023-01-09T06:22:17.694Z,98603.16
2023-01-09T06:23:19.389Z,98597.53
2023-01-09T06:24:22.100Z,98601.91
2023-01-09T06:25:25.181Z,98606.66
2023-01-09T06:26:28.054Z,98596.53
2023-01-09T06:27:29.824Z,98595.50
2023-01-09T06:28:32.660Z,98596.91
2023-01-09T06:29:34.392Z,98600.91
2023-01-09T06:30:37.077Z,98601.50
2023-01-09T06:31:38.801Z,98601.13
2023-01-09T06:32:41.501Z,98602.97
2023-01-09T06:33:43.297Z,98605.47
2023-01-09T06:34:45.966Z,98611.38
2023-01-09T06:35:47.805Z,98601.75
2023-01-09T06:36:50.470Z,98607.22
2023-01-09T06:37:52.226Z,98598.59
2023-01-09T06:38:55.008Z,98613.44
2023-01-09T06:39:56.675Z,98611.09
2023-01-09T06:41:00.772Z,98630.00
2023-01-09T06:42:02.542Z,98616.34
2023-01-09T06:43:05.259Z,98638.81
2023-01-09T06:44:06.997Z,98619.09
2023-01-09T06:45:10.673Z,98623.72
2023-01-09T06:46:12.459Z,98634.59
2023-01-09T06:47:15.278Z,98621.44
2023-01-09T06:48:16.979Z,98632.97
2023-01-09T06:49:23.489Z,98645.13
2023-01-09T06:50:25.140Z,98632.34
2023-01-09T06:51:27.763Z,98639.91
2023-01-09T06:52:29.463Z,98629.81
2023-01-09T06:53:32.124Z,98634.66
2023-01-09T06:54:34.215Z,98633.81
2023-01-09T06:55:37.003Z,98632.97
2023-01-09T06:56:40.024Z,98636.06
2023-01-09T06:57:42.702Z,98626.63
2023-01-09T06:58:44.389Z,98623.28
2023-01-09T06:59:47.112Z,98634.13
2023-01-09T07:00:49.953Z,98633.09
2023-01-09T07:01:51.705Z,98642.97
2023-01-09T07:02:54.420Z,98641.28
2023-01-09T07:03:56.225Z,98641.28
2023-01-09T07:04:58.998Z,98635.63
2023-01-09T07:06:00.669Z,98639.38
2023-01-09T07:07:03.325Z,98644.56
2023-01-09T07:08:05.045Z,98644.19
2023-01-09T07:09:07.961Z,98644.00
2023-01-09T07:10:10.723Z,98648.63
2023-01-09T07:11:13.471Z,98639.38
2023-01-09T07:12:16.633Z,98640.25
2023-01-09T07:13:19.374Z,98647.56
2023-01-09T07:14:21.159Z,98641.69
2023-01-09T07:15:24.022Z,98646.69
2023-01-09T07:16:25.807Z,98639.38
2023-01-09T07:17:28.759Z,98649.50
2023-01-09T07:18:31.484Z,98652.81
2023-01-09T07:19:33.409Z,98654.50
2023-01-09T07:20:36.129Z,98656.97
2023-01-09T07:21:37.888Z,98651.94
2023-01-09T07:22:43.363Z,98645.41
2023-01-09T07:23:46.042Z,98653.38
2023-01-09T07:24:47.708Z,98664.47
2023-01-09T07:25:51.941Z,98662.63
2023-01-09T07:26:53.610Z,98653.38
2023-01-09T07:27:57.618Z,98658.88
2023-01-09T07:29:00.313Z,98653.84
2023-01-09T07:30:02.207Z,98665.31
2023-01-09T07:31:07.633Z,98662.38
2023-01-09T07:32:10.440Z,98657.59
2023-01-09T07:33:12.130Z,98662.38
2023-01-09T07:34:14.896Z,98659.03
2023-01-09T07:35:17.173Z,98654.84
2023-01-09T07:36:19.955Z,98670.59
2023-01-09T07:37:21.864Z,98653.38
2023-01-09T07:38:24.578Z,98664.75
2023-01-09T07:39:27.215Z,98667.41
2023-01-09T07:40:30.174Z,98660.69
2023-01-09T07:41:31.931Z,98674.28
2023-01-09T07:42:34.665Z,98672.66
2023-01-09T07:43:38.092Z,98669.47
2023-01-09T07:44:40.792Z,98671.38
2023-01-09T07:45:43.463Z,98672.06
2023-01-09T07:46:45.179Z,98679.22
2023-01-09T07:47:48.329Z,98678.84
2023-01-09T07:48:50.038Z,98676.91
2023-01-09T07:49:52.723Z,98673.34
2023-01-09T07:50:55.413Z,98684.00
2023-01-09T07:51:57.070Z,98678.94
2023-01-09T07:53:00.121Z,98676.88
2023-01-09T07:54:02.804Z,98677.44
2023-01-09T07:55:06.255Z,98683.53
2023-01-09T07:56:08.245Z,98677.91
2023-01-09T07:57:11.012Z,98688.63
2023-01-09T07:58:12.791Z,98679.16
2023-01-09T07:59:16.811Z,98693.41
2023-01-09T08:00:21.109Z,98696.16
2023-01-09T08:01:24.175Z,98692.38
2023-01-09T08:02:27.196Z,98696.56
2023-01-09T08:03:29.859Z,98699.72
2023-01-09T08:04:32.528Z,98692.38
2023-01-09T08:05:34.497Z,98688.56
2023-01-09T08:06:37.194Z,98703.47
2023-01-09T08:07:38.936Z,98698.22
2023-01-09T08:08:41.610Z,98701.53
2023-01-09T08:09:44.282Z,98698.97
2023-01-09T08:10:47.154Z,98710.34
2023-01-09T08:11:50.765Z,98691.25
2023-01-09T08:12:52.477Z,98704.91
2023-01-09T08:13:55.256Z,98707.84
2023-01-09T08:14:59.493Z,98695.03
2023-01-09T08:16:01.853Z,98693.97
2023-01-09T08:17:04.633Z,98704.50
2023-01-09T08:18:06.465Z,98698.00
2023-01-09T08:19:12.000Z,98705.47
2023-01-09T08:20:15.745Z,98702.72
2023-01-09T08:21:18.461Z,98705.25
2023-01-09T08:22:21.191Z,98704.81
2023-01-09T08:23:23.932Z,98705.84
2023-01-09T08:24:26.634Z,98704.81
2023-01-09T08:25:28.368Z,98699.56
2023-01-09T08:26:31.019Z,98698.94
2023-01-09T08:27:32.847Z,98697.47
2023-01-09T08:28:35.595Z,98698.13
2023-01-09T08:29:38.295Z,98688.88
2023-01-09T08:30:42.487Z,98699.72
2023-01-09T08:31:45.319Z,98699.72
2023-01-09T08:32:50.922Z,98710.25
2023-01-09T08:33:53.643Z,98700.59
2023-01-09T08:34:55.432Z,98698.50
2023-01-09T08:35:58.125Z,98699.06
2023-01-09T08:37:00.873Z,98691.91
2023-01-09T08:38:03.585Z,98704.91
2023-01-09T08:39:05.327Z,98691.38
2023-01-09T08:40:09.468Z,98702.72
2023-01-09T08:41:35.054Z,98712.72
2023-01-09T08:42:55.549Z,98710.16
2023-01-09T08:44:16.188Z,98711.94
2023-01-09T08:45:36.663Z,98720.31
2023-01-09T08:46:58.216Z,98723.13
2023-01-09T08:48:00.889Z,98715.53
2023-01-09T08:49:03.636Z,98712.97
2023-01-09T08:50:05.621Z,98728.31
2023-01-09T08:51:08.360Z,98724.56
2023-01-09T08:52:11.227Z,98714.91
2023-01-09T08:53:13.557Z,98721.34
2023-01-09T08:54:16.316Z,98723.25
2023-01-09T08:55:17.998Z,98717.22
2023-01-09T08:56:20.723Z,98723.91
2023-01-09T08:57:23.511Z,98720.97
2023-01-09T08:58:25.266Z,98724.34
2023-01-09T08:59:28.113Z,98719.97
2023-01-09T09:00:30.249Z,98740.09
2023-01-09T09:01:33.149Z,98729.38
2023-01-09T09:02:37.370Z,98735.25
2023-01-09T09:03:40.147Z,98727.09
2023-01-09T09:04:41.911Z,98727.94
2023-01-09T09:05:46.692Z,98737.63
2023-01-09T09:06:49.508Z,98726.47
2023-01-09T09:07:53.911Z,98730.22
2023-01-09T09:08:56.614Z,98720.72
2023-01-09T09:09:58.345Z,98726.41
2023-01-09T09:11:01.441Z,98733.38
2023-01-09T09:12:03.269Z,98729.25
2023-01-09T09:13:06.614Z,98735.09
2023-01-09T09:14:25.503Z,98760.66
2023-01-09T09:15:29.096Z,98728.81
2023-01-09T09:16:30.895Z,98743.53
2023-01-09T09:17:33.779Z,98744.38
2023-01-09T09:18:37.834Z,98740.94
2023-01-09T09:19:42.558Z,98743.66
2023-01-09T09:20:45.342Z,98740.06
2023-01-09T09:21:47.069Z,98738.19
2023-01-09T09:22:50.008Z,98743.44
2023-01-09T09:23:52.831Z,98745.06
2023-01-09T09:24:54.612Z,98751.31
2023-01-09T09:25:57.293Z,98745.22
2023-01-09T09:26:59.066Z,98748.09
2023-01-09T09:28:01.965Z,98757.38
2023-01-09T09:29:03.878Z,98748.34
2023-01-09T09:30:08.082Z,98742.81
2023-01-09T09:31:10.816Z,98753.72
2023-01-09T09:32:12.620Z,98747.78
2023-01-09T09:33:15.265Z,98758.78
2023-01-09T09:34:18.774Z,98751.84
2023-01-09T09:35:22.622Z,98748.47
2023-01-09T09:36:25.411Z,98752.44
2023-01-09T09:37:28.079Z,98753.91
2023-01-09T09:38:30.705Z,98755.00
2023-01-09T09:39:32.430Z,98752.59
2023-01-09T09:40:51.798Z,98754.09
2023-01-09T09:42:36.625Z,98746.53
2023-01-09T09:44:11.090Z,98758.53
2023-01-09T09:45:24.722Z,98754.53
2023-01-09T09:46:33.291Z,98750.97
2023-01-09T09:47:45.906Z,98753.31
2023-01-09T09:48:52.225Z,98754.16
2023-01-09T09:50:04.606Z,98754.72
2023-01-09T09:51:22.928Z,98756.63
2023-01-09T09:52:31.380Z,98750.34
2023-01-09T09:53:37.953Z,98753.72
2023-01-09T09:54:42.601Z,98751.25
2023-01-09T09:55:46.494Z,98761.50
2023-01-09T09:56:51.603Z,98759.81
2023-01-09T09:57:53.453Z,98757.78
2023-01-09T09:58:59.532Z,98744.56
2023-01-09T10:00:03.965Z,98760.47
2023-01-09T10:01:07.937Z,98752.47
2023-01-09T10:02:22.581Z,98745.91
2023-01-09T10:03:33.856Z,98750.91
2023-01-09T10:04:40.819Z,98738.56
2023-01-09T10:05:46.654Z,98738.91
2023-01-09T10:06:52.157Z,98748.53
2023-01-09T10:07:55.181Z,98748.59
2023-01-09T10:09:03.546Z,98753.25
2023-01-09T10:10:08.577Z,98737.72
2023-01-09T10:11:14.537Z,98750.09
2023-01-09T10:12:28.111Z,98750.31
2023-01-09T10:13:48.663Z,98751.38
2023-01-09T10:14:51.432Z,98750.69
2023-01-09T10:16:01.742Z,98753.81
2023-01-09T10:17:14.172Z,98743.53
2023-01-09T10:18:23.788Z,98745.06
2023-01-09T10:19:36.938Z,98755.31
2023-01-09T10:20:56.303Z,98741.47
2023-01-09T10:22:04.975Z,98751.53
2023-01-09T10:23:20.454Z,98752.38
2023-01-09T10:24:47.887Z,98745.63
2023-01-09T10:25:53.795Z,98741.47
2023-01-09T10:26:57.936Z,98750.00
2023-01-09T10:28:09.879Z,98742.56
2023-01-09T10:29:27.342Z,98744.72
2023-01-09T10:30:37.090Z,98734.84
2023-01-09T10:31:49.147Z,98736.56
2023-01-09T10:33:01.433Z,98731.13
2023-01-09T10:34:14.617Z,98735.88
2023-01-09T10:35:39.287Z,98735.69
2023-01-09T10:37:03.462Z,98746.78
2023-01-09T10:38:06.630Z,98735.06
2023-01-09T10:39:13.782Z,98743.41
2023-01-09T10:40:20.431Z,98738.59
2023-01-09T10:41:26.471Z,98748.63
2023-01-09T10:42:33.523Z,98759.56
2023-01-09T10:43:42.916Z,98764.63
2023-01-09T10:44:50.347Z,98753.25
2023-01-09T10:45:54.798Z,98768.38
2023-01-09T10:46:57.091Z,98756.22
2023-01-09T10:48:03.628Z,98748.44
2023-01-09T10:49:12.851Z,98758.72
2023-01-09T10:50:20.662Z,98743.34
2023-01-09T10:51:26.229Z,98760.78
2023-01-09T10:52:35.744Z,98768.16
2023-01-09T10:53:40.930Z,98754.09
2023-01-09T10:54:49.891Z,98750.53
2023-01-09T10:55:55.916Z,98761.22
2023-01-09T10:57:02.155Z,98756.38
2023-01-09T10:58:12.578Z,98769.63
2023-01-09T10:59:15.288Z,98751.38
2023-01-09T11:00:23.204Z,98761.22
2023-01-09T11:01:29.721Z,98762.47
2023-01-09T11:02:33.907Z,98747.78
2023-01-09T11:03:38.381Z,98748.63
2023-01-09T11:04:40.508Z,98750.31
2023-01-09T11:05:44.391Z,98759.97
2023-01-09T11:06:51.353Z,98748.47
2023-01-09T11:07:59.766Z,98752.66
2023-01-09T11:09:03.034Z,98753.25
2023-01-09T11:10:09.613Z,98751.16
2023-01-09T11:11:12.995Z,98744.25
2023-01-09T11:12:26.171Z,98747.78
2023-01-09T11:13:31.698Z,98746.31
2023-01-09T11:14:34.554Z,98744.84
2023-01-09T11:15:37.285Z,98744.84
2023-01-09T11:16:39.971Z,98747.78
2023-01-09T11:17:42.480Z,98742.56
2023-01-09T11:18:53.611Z,98740.34
2023-01-09T11:20:04.091Z,98742.88
2023-01-09T11:21:29.396Z,98724.81
2023-01-09T11:22:43.616Z,98731.69
2023-01-09T11:23:49.937Z,98731.41
2023-01-09T11:25:01.102Z,98746.56
2023-01-09T11:26:04.518Z,98729.19
2023-01-09T11:27:24.303Z,98735.06
2023-01-09T11:28:27.273Z,98738.56
2023-01-09T11:29:29.073Z,98740.72
2023-01-09T11:30:34.006Z,98735.47
2023-01-09T11:31:36.808Z,98735.72
2023-01-09T11:32:39.566Z,98745.78
2023-01-09T11:33:49.950Z,98734.44
2023-01-09T11:34:51.693Z,98744.00
2023-01-09T11:36:00.619Z,98732.53
2023-01-09T11:37:05.760Z,98740.72
2023-01-09T11:38:14.257Z,98748.72
2023-01-09T11:39:24.757Z,98744.47
2023-01-09T11:40:26.746Z,98744.84
2023-01-09T11:41:32.024Z,98745.34
2023-01-09T11:42:51.851Z,98751.63
2023-01-09T11:43:56.783Z,98752.97
2023-01-09T11:44:59.096Z,98738.88
2023-01-09T11:46:04.185Z,98760.94
2023-01-09T11:47:26.732Z,98744.13
2023-01-09T11:48:31.928Z,98746.34
2023-01-09T11:49:34.668Z,98745.31
2023-01-09T11:50:36.397Z,98739.84
2023-01-09T11:51:39.094Z,98753.25
2023-01-09T11:52:40.751Z,98739.84
2023-01-09T11:53:49.680Z,98756.03
2023-01-09T11:54:56.959Z,98754.94
2023-01-09T11:56:02.193Z,98747.53
2023-01-09T11:57:05.179Z,98747.78
2023-01-09T11:58:11.160Z,98762.47
2023-01-09T11:59:15.441Z,98748.63
2023-01-09T12:00:26.597Z,98749.84
2023-01-09T12:01:47.856Z,98744.19
2023-01-09T12:03:01.188Z,98741.47
2023-01-09T12:04:13.282Z,98746.06
2023-01-09T12:05:22.506Z,98742.31
2023-01-09T12:06:30.544Z,98741.00
2023-01-09T12:07:49.912Z,98737.69
2023-01-09T12:08:57.107Z,98739.75
2023-01-09T12:10:11.174Z,98723.22
2023-01-09T12:11:23.084Z,98739.78
2023-01-09T12:12:29.321Z,98744.00
2023-01-09T12:13:43.975Z,98750.06
2023-01-09T12:14:59.084Z,98749.88
2023-01-09T12:16:10.880Z,98755.56
2023-01-09T12:17:35.693Z,98743.78
2023-01-09T12:18:50.090Z,98740.78
2023-01-09T12:20:06.150Z,98734.50
2023-01-09T12:21:21.411Z,98741.81
2023-01-09T12:22:29.117Z,98733.81
2023-01-09T12:23:44.976Z,98741.34
2023-01-09T12:25:10.822Z,98735.50
2023-01-09T12:26:17.532Z,98739.66
2023-01-09T12:27:27.394Z,98726.66
2023-01-09T12:29:01.108Z,98740.56
2023-01-09T12:30:31.972Z,98735.34
2023-01-09T12:31:44.189Z,98727.31
2023-01-09T12:32:55.207Z,98737.13
2023-01-09T12:34:05.554Z,98738.00
2023-01-09T12:35:17.405Z,98740.06
2023-01-09T12:36:25.335Z,98738.44
2023-01-09T12:37:41.572Z,98737.88
2023-01-09T12:38:49.377Z,98734.31
2023-01-09T12:39:55.499Z,98734.88
2023-01-09T12:41:21.883Z,98730.03
2023-01-09T12:42:36.138Z,98735.88
2023-01-09T12:43:42.501Z,98725.97
2023-01-09T12:44:52.233Z,98736.53
2023-01-09T12:46:03.868Z,98732.72
2023-01-09T12:47:18.074Z,98733.50
2023-01-09T12:48:32.698Z,98725.78